Time;durP1;ratioP1;P1;durP2;ratioP2;P2;SDS_P1;SDS_P2;PMS_P1;PMS_P2;Temp;Humidity;BMP_temperature;BMP_pressure;BME280_temperature;BME280_humidity;BME280_pressure;Samples;Min_cycle;Max_cycle;Signal;HPM_P1;HPM_P2
2021/12/13 00:28:44;;;;;;;2.05;1.95;;;2.60;99.90;;;;;;7372250;19;20293;-89
2021/12/13 00:31:33;;;;;;;1.75;1.65;;;2.60;99.90;;;;;;7358641;19;20349;-89
2021/12/13 05:38:39;;;;;;;5.57;5.05;;;3.50;99.90;;;;;;7387203;19;20319;-83
2021/12/13 05:41:13;;;;;;;4.75;4.35;;;3.50;99.90;;;;;;7356653;19;20339;-84
2021/12/13 05:43:55;;;;;;;4.53;4.13;;;3.50;99.90;;;;;;7325220;19;20336;-86
2021/12/13 05:46:49;;;;;;;4.23;3.83;;;3.50;99.90;;;;;;7308771;19;20289;-84
2021/12/13 06:00:26;;;;;;;7.28;6.45;;;3.60;99.90;;;;;;7411200;19;20937;-83
2021/12/13 06:03:52;;;;;;;6.37;5.77;;;3.60;99.90;;;;;;7179999;19;2004539;-84
2021/12/13 06:06:26;;;;;;;6.68;5.72;;;3.60;99.90;;;;;;7360259;19;20316;-84
2021/12/13 06:08:56;;;;;;;7.77;6.30;;;3.60;99.90;;;;;;7365306;19;20316;-83
2021/12/13 06:11:34;;;;;;;6.47;5.85;;;3.60;99.90;;;;;;7375614;19;20842;-83
2021/12/13 06:14:24;;;;;;;8.82;6.75;;;3.50;99.90;;;;;;7138514;19;2004393;-80
2021/12/13 06:17:37;;;;;;;7.10;6.40;;;3.60;99.90;;;;;;7241749;19;20312;-82
2021/12/13 06:20:37;;;;;;;7.15;6.13;;;3.50;99.90;;;;;;7233998;19;20862;-82
2021/12/13 06:23:52;;;;;;;5.88;5.28;;;3.50;99.90;;;;;;7176977;19;2004826;-82
2021/12/13 06:27:31;;;;;;;6.32;4.65;;;3.60;99.90;;;;;;7017439;19;2004442;-82
2021/12/13 06:30:08;;;;;;;5.25;4.75;;;3.60;99.90;;;;;;7180946;19;2004593;-81
2021/12/13 06:33:07;;;;;;;5.05;4.63;;;3.50;99.90;;;;;;7273975;19;20308;-82
2021/12/13 07:46:09;;;;;;;4.83;4.43;;;3.90;99.90;;;;;;7350783;19;20378;-82
2021/12/13 07:48:54;;;;;;;4.50;4.07;;;3.90;99.90;;;;;;7375684;19;20328;-83
2021/12/13 07:51:48;;;;;;;3.75;3.45;;;4.20;99.90;;;;;;7259442;19;2004419;-83
2021/12/13 07:54:16;;;;;;;6.15;5.50;;;4.00;99.90;;;;;;7379381;19;20319;-82
2021/12/13 07:56:53;;;;;;;7.20;6.50;;;4.00;99.90;;;;;;7384108;19;20340;-84
2021/12/13 07:59:31;;;;;;;5.82;5.10;;;4.00;99.90;;;;;;7361154;19;20308;-82
2021/12/13 08:02:31;;;;;;;4.72;4.15;;;4.00;99.90;;;;;;7347861;19;20344;-83
2021/12/13 08:05:11;;;;;;;7.18;5.38;;;4.00;99.90;;;;;;7279284;19;2004835;-82
2021/12/13 08:07:44;;;;;;;8.00;5.00;;;4.00;99.90;;;;;;7356013;19;20313;-82
2021/12/13 08:10:28;;;;;;;5.95;5.43;;;4.10;99.90;;;;;;7376208;19;20313;-83
2021/12/13 08:13:05;;;;;;;4.95;4.50;;;4.00;99.90;;;;;;7382332;19;20340;-84
2021/12/13 08:15:40;;;;;;;5.35;4.82;;;4.10;99.90;;;;;;7371456;19;20396;-82
2021/12/13 08:18:21;;;;;;;4.63;4.22;;;4.00;99.90;;;;;;7388213;19;20317;-83
2021/12/13 08:20:53;;;;;;;5.57;4.47;;;4.00;99.90;;;;;;7371178;19;20325;-83
2021/12/13 08:23:28;;;;;;;5.60;4.65;;;4.10;99.90;;;;;;7382938;19;20344;-86
2021/12/13 08:25:58;;;;;;;4.80;4.35;;;4.10;99.90;;;;;;7385599;19;20346;-82
2021/12/13 08:28:42;;;;;;;4.97;4.47;;;4.10;99.90;;;;;;7362728;19;20397;-83
2021/12/13 08:31:20;;;;;;;4.65;4.25;;;4.10;99.90;;;;;;7278608;19;2004422;-82
2021/12/13 08:33:58;;;;;;;5.47;4.85;;;4.20;99.90;;;;;;7379855;19;20309;-82
2021/12/13 08:36:25;;;;;;;4.80;4.40;;;4.20;99.90;;;;;;7381891;19;20340;-81
2021/12/13 08:39:10;;;;;;;4.68;4.28;;;4.20;99.90;;;;;;7382921;19;20337;-82
2021/12/13 08:41:44;;;;;;;4.50;4.10;;;4.30;99.90;;;;;;7276682;19;2004435;-82
2021/12/13 08:44:19;;;;;;;6.03;5.35;;;4.30;99.90;;;;;;7274180;19;2004381;-81
2021/12/13 08:46:47;;;;;;;5.88;5.00;;;4.30;99.90;;;;;;7276109;19;2004673;-82
2021/12/13 08:49:22;;;;;;;6.80;5.25;;;4.30;99.90;;;;;;7382126;19;20305;-82
2021/12/13 08:52:02;;;;;;;5.82;5.03;;;4.30;99.90;;;;;;7380191;19;20321;-81
2021/12/13 08:54:53;;;;;;;6.85;6.07;;;4.30;99.90;;;;;;7369110;19;20349;-82
2021/12/13 08:58:02;;;;;;;9.25;6.30;;;4.40;99.90;;;;;;7239683;19;2004401;-82
2021/12/13 09:01:00;;;;;;;6.78;5.90;;;4.50;99.90;;;;;;7233261;19;2004408;-83
